Cedar Rapids, Iowa
Current Conditions -  °F | °C
As of 12:52 AM on Monday 22 Dec 2014 (Local Time) from KCID Reporting Station
Haze Haze  
Wind Chill: -2°   Ceiling: 1400
Heat Index:   Visibility: 5mi
Dew Point:   Wind: 13mph
Humidity: 97%   Direction: 160°SSE
Pressure: 29.82"   Gusts: NA
Location:  41.98°N, 91.67°W
Report Text: KCID 220652Z AUTO 16011KT 5SM BR BKN014 BKN028 OVC055 02/02 A2982 RMK AO2 RAB33E44 SLP105 P0000 T00220017 $
Loading
Personal Weather Stations






























Interactive Weather Map New forecast layout! Learn more

10-Day Weather Forecast

Advertisements
Track Severe Weather on mobile